Date,TemperatureHighF,TemperatureAvgF,TemperatureLowF,DewpointHighF,DewpointAvgF,DewpointLowF,HumidityHigh,HumidityAvg,HumidityLow,PressureMaxIn,PressureMinIn,WindSpeedMaxMPH,WindSpeedAvgMPH,GustSpeedMaxMPH,PrecipitationSumIn
2013-2-1,17.0,8.2,0.0,14.0,2.7,-4.0,89,78,67,30.39,30.18,10,6,19,0.00
2013-2-2,26.0,17.9,6.0,23.0,14.9,2.0,94,88,78,30.22,30.02,9,5,16,0.00
2013-2-3,23.0,16.6,8.0,19.0,12.2,4.0,92,83,72,30.09,29.98,14,4,19,0.00
2013-2-4,29.0,24.5,19.0,25.0,21.7,16.0,94,89,80,30.07,29.85,8,4,10,0.00
2013-2-5,32.0,24.5,13.0,29.0,21.9,11.0,94,89,80,30.09,29.82,13,5,19,0.00
2013-2-6,39.0,32.1,21.0,30.0,26.1,18.0,87,78,66,30.26,30.09,8,4,16,0.02
2013-2-7,43.0,34.3,31.0,38.0,32.1,28.0,98,92,79,30.16,29.86,10,4,17,0.44
2013-2-8,33.0,28.0,26.0,32.0,25.1,22.0,95,89,79,30.41,29.94,15,7,25,0.44
2013-2-9,36.0,30.6,27.0,30.0,25.7,21.0,87,81,76,30.41,30.12,10,4,20,0.00
2013-2-10,49.0,40.0,33.0,47.0,37.4,27.0,96,91,79,30.12,29.55,16,9,30,0.22
2013-2-11,45.0,34.0,29.0,41.0,27.3,23.0,86,76,71,30.06,29.59,17,11,32,0.01
2013-2-12,29.0,26.4,21.0,25.0,22.3,19.0,94,84,79,30.14,29.96,11,4,20,0.00
2013-2-13,45.0,33.0,22.0,34.0,28.6,20.0,96,85,65,29.96,29.75,10,3,15,0.00
2013-2-14,34.0,34.0,34.0,31.0,31.0,31.0,90,90,90,29.79,29.79,2,2,5,0.00
2013-2-15,24.0,22.8,21.0,16.0,14.2,12.0,72,70,66,30.18,30.18,10,8,16,0.00
2013-2-16,21.0,16.8,11.0,12.0,7.6,4.0,77,67,53,30.21,30.13,10,6,17,0.00
2013-2-17,31.0,19.6,7.0,18.0,7.7,2.0,84,61,36,30.23,30.05,9,3,15,0.00
2013-2-18,53.0,39.7,27.0,45.0,32.5,18.0,94,76,62,30.05,29.47,19,12,39,0.22
2013-2-19,30.0,16.3,10.0,28.0,11.6,5.0,91,81,75,30.20,29.61,17,12,31,0.22
2013-2-20,24.0,17.6,7.0,15.0,10.6,2.0,84,74,63,30.36,30.20,9,5,14,0.00
2013-2-21,29.0,24.9,20.0,24.0,19.6,14.0,94,80,76,30.38,29.99,13,6,24,0.00
2013-2-22,34.0,27.6,23.0,33.0,25.4,22.0,97,91,81,29.99,29.84,10,6,15,0.00
2013-2-23,28.0,25.1,18.0,24.0,20.6,16.0,91,83,71,29.99,29.95,8,4,14,0.00
2013-2-24,38.0,25.2,14.0,25.0,19.0,12.0,94,79,53,30.17,29.99,4,1,7,0.05
2013-2-25,43.0,34.0,23.0,30.0,26.6,20.0,90,75,58,30.20,29.98,8,4,14,0.01
2013-2-26,36.0,32.9,32.0,32.0,29.4,24.0,98,87,65,29.98,29.51,16,9,24,0.24
2013-2-27,34.0,32.5,32.0,33.0,31.6,31.0,98,96,92,29.71,29.52,10,4,15,0.17
2013-2-28,36.0,32.6,29.0,32.0,29.4,24.0,97,88,77,30.07,29.71,13,9,20,0.07